sensor_id;sensor_type;location;lat;lon;timestamp;P1;durP1;ratioP1;P2;durP2;ratioP2
75781;SDS011;64400;44.762;37.698;2023-04-03T00:00:47;8.00;;;2.83;;
75781;SDS011;64400;44.762;37.698;2023-04-03T00:03:23;8.05;;;2.92;;
75781;SDS011;64400;44.762;37.698;2023-04-03T00:05:52;6.20;;;2.83;;
75781;SDS011;64400;44.762;37.698;2023-04-03T00:08:26;7.75;;;2.78;;
75781;SDS011;64400;44.762;37.698;2023-04-03T00:10:54;8.35;;;2.40;;
75781;SDS011;64400;44.762;37.698;2023-04-03T00:13:28;7.07;;;2.88;;
75781;SDS011;64400;44.762;37.698;2023-04-03T00:15:57;7.15;;;2.85;;
75781;SDS011;64400;44.762;37.698;2023-04-03T00:18:31;6.20;;;1.90;;
75781;SDS011;64400;44.762;37.698;2023-04-03T00:20:59;8.20;;;2.80;;
75781;SDS011;64400;44.762;37.698;2023-04-03T00:23:33;8.30;;;2.42;;
75781;SDS011;64400;44.762;37.698;2023-04-03T00:26:02;6.53;;;2.50;;
75781;SDS011;64400;44.762;37.698;2023-04-03T00:28:36;6.68;;;3.28;;
75781;SDS011;64400;44.762;37.698;2023-04-03T00:31:04;4.65;;;2.70;;
75781;SDS011;64400;44.762;37.698;2023-04-03T00:33:38;4.82;;;2.13;;
75781;SDS011;64400;44.762;37.698;2023-04-03T00:36:07;5.40;;;2.28;;
75781;SDS011;64400;44.762;37.698;2023-04-03T00:38:44;6.78;;;2.10;;
75781;SDS011;64400;44.762;37.698;2023-04-03T00:41:13;7.53;;;2.10;;
75781;SDS011;64400;44.762;37.698;2023-04-03T00:43:47;7.88;;;2.53;;
75781;SDS011;64400;44.762;37.698;2023-04-03T00:46:15;4.40;;;2.30;;
75781;SDS011;64400;44.762;37.698;2023-04-03T00:48:49;5.85;;;2.75;;
75781;SDS011;64400;44.762;37.698;2023-04-03T00:51:24;6.35;;;2.80;;
75781;SDS011;64400;44.762;37.698;2023-04-03T00:53:55;5.28;;;2.03;;
75781;SDS011;64400;44.762;37.698;2023-04-03T00:56:27;4.57;;;1.75;;
75781;SDS011;64400;44.762;37.698;2023-04-03T00:58:59;7.65;;;2.58;;
75781;SDS011;64400;44.762;37.698;2023-04-03T01:01:37;6.20;;;2.75;;
75781;SDS011;64400;44.762;37.698;2023-04-03T01:04:24;5.22;;;2.42;;
75781;SDS011;64400;44.762;37.698;2023-04-03T01:06:55;4.68;;;1.63;;
75781;SDS011;64400;44.762;37.698;2023-04-03T01:09:25;7.20;;;2.53;;
75781;SDS011;64400;44.762;37.698;2023-04-03T01:12:13;10.00;;;2.50;;
75781;SDS011;64400;44.762;37.698;2023-04-03T01:14:50;8.23;;;2.75;;
75781;SDS011;64400;44.762;37.698;2023-04-03T01:28:11;11.65;;;3.20;;
75781;SDS011;64400;44.762;37.698;2023-04-03T01:33:39;9.32;;;3.22;;
75781;SDS011;64400;44.762;37.698;2023-04-03T01:36:07;6.85;;;3.00;;
75781;SDS011;64400;44.762;37.698;2023-04-03T01:38:42;7.97;;;3.15;;
75781;SDS011;64400;44.762;37.698;2023-04-03T01:41:10;7.50;;;3.60;;
75781;SDS011;64400;44.762;37.698;2023-04-03T01:43:45;8.70;;;3.25;;
75781;SDS011;64400;44.762;37.698;2023-04-03T01:46:14;11.15;;;2.92;;
75781;SDS011;64400;44.762;37.698;2023-04-03T01:48:49;7.97;;;3.47;;
75781;SDS011;64400;44.762;37.698;2023-04-03T01:51:17;11.20;;;3.22;;
75781;SDS011;64400;44.762;37.698;2023-04-03T01:53:51;8.57;;;3.40;;
75781;SDS011;64400;44.762;37.698;2023-04-03T01:56:19;7.18;;;3.58;;
75781;SDS011;64400;44.762;37.698;2023-04-03T01:58:55;11.90;;;3.40;;
75781;SDS011;64400;44.762;37.698;2023-04-03T02:01:23;8.07;;;3.58;;
75781;SDS011;64400;44.762;37.698;2023-04-03T02:04:00;11.73;;;3.60;;
75781;SDS011;64400;44.762;37.698;2023-04-03T02:06:28;10.40;;;4.00;;
75781;SDS011;64400;44.762;37.698;2023-04-03T02:09:03;8.05;;;3.58;;
75781;SDS011;64400;44.762;37.698;2023-04-03T02:11:31;9.73;;;3.95;;
75781;SDS011;64400;44.762;37.698;2023-04-03T02:14:06;9.82;;;4.47;;
75781;SDS011;64400;44.762;37.698;2023-04-03T02:16:54;6.95;;;3.50;;
75781;SDS011;64400;44.762;37.698;2023-04-03T02:19:23;11.13;;;4.57;;
75781;SDS011;64400;44.762;37.698;2023-04-03T02:21:57;12.00;;;4.18;;
75781;SDS011;64400;44.762;37.698;2023-04-03T02:24:25;12.00;;;5.18;;
75781;SDS011;64400;44.762;37.698;2023-04-03T02:26:59;13.00;;;5.72;;
75781;SDS011;64400;44.762;37.698;2023-04-03T02:29:27;14.45;;;5.32;;
75781;SDS011;64400;44.762;37.698;2023-04-03T02:32:02;14.73;;;5.70;;
75781;SDS011;64400;44.762;37.698;2023-04-03T02:34:32;10.25;;;3.85;;
75781;SDS011;64400;44.762;37.698;2023-04-03T02:37:07;13.07;;;5.35;;
75781;SDS011;64400;44.762;37.698;2023-04-03T02:39:35;13.32;;;5.47;;
75781;SDS011;64400;44.762;37.698;2023-04-03T02:42:10;8.98;;;3.92;;
75781;SDS011;64400;44.762;37.698;2023-04-03T02:44:38;11.55;;;5.20;;
75781;SDS011;64400;44.762;37.698;2023-04-03T02:47:08;9.85;;;5.90;;
75781;SDS011;64400;44.762;37.698;2023-04-03T02:49:36;8.00;;;4.55;;
75781;SDS011;64400;44.762;37.698;2023-04-03T02:52:14;11.23;;;5.72;;
75781;SDS011;64400;44.762;37.698;2023-04-03T02:54:43;11.25;;;5.82;;
75781;SDS011;64400;44.762;37.698;2023-04-03T02:57:11;12.13;;;6.55;;
75781;SDS011;64400;44.762;37.698;2023-04-03T02:59:42;16.80;;;6.63;;
75781;SDS011;64400;44.762;37.698;2023-04-03T03:02:12;13.88;;;6.05;;
75781;SDS011;64400;44.762;37.698;2023-04-03T03:04:46;12.65;;;6.40;;
75781;SDS011;64400;44.762;37.698;2023-04-03T03:07:14;13.68;;;6.28;;
75781;SDS011;64400;44.762;37.698;2023-04-03T03:09:49;9.15;;;5.55;;
75781;SDS011;64400;44.762;37.698;2023-04-03T03:12:17;13.30;;;7.00;;
75781;SDS011;64400;44.762;37.698;2023-04-03T03:14:49;13.30;;;5.70;;
75781;SDS011;64400;44.762;37.698;2023-04-03T03:17:17;11.80;;;6.57;;
75781;SDS011;64400;44.762;37.698;2023-04-03T03:19:52;16.13;;;7.43;;
75781;SDS011;64400;44.762;37.698;2023-04-03T03:22:20;12.90;;;6.45;;
75781;SDS011;64400;44.762;37.698;2023-04-03T03:24:55;8.40;;;3.90;;
75781;SDS011;64400;44.762;37.698;2023-04-03T03:27:23;6.65;;;3.50;;
75781;SDS011;64400;44.762;37.698;2023-04-03T03:29:58;12.63;;;6.75;;
75781;SDS011;64400;44.762;37.698;2023-04-03T03:32:26;12.27;;;4.93;;
75781;SDS011;64400;44.762;37.698;2023-04-03T03:35:01;9.35;;;4.63;;
75781;SDS011;64400;44.762;37.698;2023-04-03T03:37:29;7.85;;;4.45;;
75781;SDS011;64400;44.762;37.698;2023-04-03T03:40:04;11.05;;;6.05;;
75781;SDS011;64400;44.762;37.698;2023-04-03T03:42:34;8.73;;;3.72;;
75781;SDS011;64400;44.762;37.698;2023-04-03T03:45:11;8.73;;;4.30;;
75781;SDS011;64400;44.762;37.698;2023-04-03T03:47:41;9.70;;;5.80;;
75781;SDS011;64400;44.762;37.698;2023-04-03T03:50:15;12.35;;;5.43;;
75781;SDS011;64400;44.762;37.698;2023-04-03T03:52:44;6.63;;;4.03;;
75781;SDS011;64400;44.762;37.698;2023-04-03T03:55:19;7.85;;;5.00;;
75781;SDS011;64400;44.762;37.698;2023-04-03T03:57:52;12.95;;;6.32;;
75781;SDS011;64400;44.762;37.698;2023-04-03T04:00:21;9.30;;;4.35;;
75781;SDS011;64400;44.762;37.698;2023-04-03T04:02:54;7.13;;;4.05;;
75781;SDS011;64400;44.762;37.698;2023-04-03T04:05:25;9.68;;;4.72;;
75781;SDS011;64400;44.762;37.698;2023-04-03T04:07:54;11.30;;;5.30;;
75781;SDS011;64400;44.762;37.698;2023-04-03T04:14:59;10.73;;;5.10;;
75781;SDS011;64400;44.762;37.698;2023-04-03T04:54:13;7.07;;;4.20;;
75781;SDS011;64400;44.762;37.698;2023-04-03T04:56:41;11.65;;;5.75;;
75781;SDS011;64400;44.762;37.698;2023-04-03T04:59:09;9.52;;;4.95;;
75781;SDS011;64400;44.762;37.698;2023-04-03T05:01:37;10.82;;;5.47;;
75781;SDS011;64400;44.762;37.698;2023-04-03T05:04:13;9.80;;;5.05;;
75781;SDS011;64400;44.762;37.698;2023-04-03T05:06:44;11.80;;;5.45;;
75781;SDS011;64400;44.762;37.698;2023-04-03T05:09:17;11.07;;;5.28;;
75781;SDS011;64400;44.762;37.698;2023-04-03T05:11:48;9.48;;;4.95;;
75781;SDS011;64400;44.762;37.698;2023-04-03T05:14:18;11.52;;;5.97;;
75781;SDS011;64400;44.762;37.698;2023-04-03T05:16:46;9.75;;;5.20;;
75781;SDS011;64400;44.762;37.698;2023-04-03T05:19:17;10.50;;;5.80;;
75781;SDS011;64400;44.762;37.698;2023-04-03T05:21:46;13.65;;;6.30;;
75781;SDS011;64400;44.762;37.698;2023-04-03T05:24:16;11.68;;;6.18;;
75781;SDS011;64400;44.762;37.698;2023-04-03T05:26:44;10.75;;;4.45;;
75781;SDS011;64400;44.762;37.698;2023-04-03T05:29:15;10.23;;;4.47;;
75781;SDS011;64400;44.762;37.698;2023-04-03T05:31:43;11.23;;;5.10;;
75781;SDS011;64400;44.762;37.698;2023-04-03T05:34:12;8.02;;;5.05;;
75781;SDS011;64400;44.762;37.698;2023-04-03T05:36:41;6.63;;;4.60;;
75781;SDS011;64400;44.762;37.698;2023-04-03T05:39:10;7.43;;;3.50;;
75781;SDS011;64400;44.762;37.698;2023-04-03T05:41:42;9.88;;;4.05;;
75781;SDS011;64400;44.762;37.698;2023-04-03T05:44:09;11.88;;;4.90;;
75781;SDS011;64400;44.762;37.698;2023-04-03T05:46:40;7.45;;;3.17;;
75781;SDS011;64400;44.762;37.698;2023-04-03T05:49:09;6.60;;;3.38;;
75781;SDS011;64400;44.762;37.698;2023-04-03T05:56:12;10.13;;;4.25;;
75781;SDS011;64400;44.762;37.698;2023-04-03T05:58:40;5.80;;;3.60;;
75781;SDS011;64400;44.762;37.698;2023-04-03T06:01:15;12.57;;;5.07;;
75781;SDS011;64400;44.762;37.698;2023-04-03T06:03:44;5.97;;;3.42;;
75781;SDS011;64400;44.762;37.698;2023-04-03T06:06:18;8.98;;;4.10;;
75781;SDS011;64400;44.762;37.698;2023-04-03T06:08:47;5.47;;;2.47;;
75781;SDS011;64400;44.762;37.698;2023-04-03T06:11:21;8.95;;;3.03;;
75781;SDS011;64400;44.762;37.698;2023-04-03T06:13:49;7.60;;;3.63;;
75781;SDS011;64400;44.762;37.698;2023-04-03T06:16:25;5.18;;;2.97;;
75781;SDS011;64400;44.762;37.698;2023-04-03T06:18:53;9.35;;;4.55;;
75781;SDS011;64400;44.762;37.698;2023-04-03T06:21:28;10.85;;;4.57;;
75781;SDS011;64400;44.762;37.698;2023-04-03T06:23:57;8.30;;;4.18;;
75781;SDS011;64400;44.762;37.698;2023-04-03T06:26:31;11.30;;;4.10;;
75781;SDS011;64400;44.762;37.698;2023-04-03T06:29:00;8.48;;;3.65;;
75781;SDS011;64400;44.762;37.698;2023-04-03T06:31:35;7.28;;;3.85;;
75781;SDS011;64400;44.762;37.698;2023-04-03T06:34:07;13.52;;;4.05;;
75781;SDS011;64400;44.762;37.698;2023-04-03T06:36:35;11.45;;;4.85;;
75781;SDS011;64400;44.762;37.698;2023-04-03T06:39:12;8.27;;;3.70;;
75781;SDS011;64400;44.762;37.698;2023-04-03T06:41:42;7.65;;;3.78;;
75781;SDS011;64400;44.762;37.698;2023-04-03T06:44:11;6.75;;;3.63;;
75781;SDS011;64400;44.762;37.698;2023-04-03T06:46:40;11.88;;;3.95;;
75781;SDS011;64400;44.762;37.698;2023-04-03T06:49:08;9.27;;;3.63;;
75781;SDS011;64400;44.762;37.698;2023-04-03T06:51:43;6.95;;;3.25;;
75781;SDS011;64400;44.762;37.698;2023-04-03T06:54:11;5.43;;;3.05;;
75781;SDS011;64400;44.762;37.698;2023-04-03T06:56:46;7.60;;;2.72;;
75781;SDS011;64400;44.762;37.698;2023-04-03T06:59:14;6.80;;;3.35;;
75781;SDS011;64400;44.762;37.698;2023-04-03T07:01:49;6.93;;;2.40;;
75781;SDS011;64400;44.762;37.698;2023-04-03T07:04:17;7.07;;;2.72;;
75781;SDS011;64400;44.762;37.698;2023-04-03T07:06:47;9.65;;;2.97;;
75781;SDS011;64400;44.762;37.698;2023-04-03T07:09:16;5.60;;;3.05;;
75781;SDS011;64400;44.762;37.698;2023-04-03T07:11:50;6.20;;;2.65;;
75781;SDS011;64400;44.762;37.698;2023-04-03T07:14:18;10.85;;;2.90;;
75781;SDS011;64400;44.762;37.698;2023-04-03T07:16:52;5.90;;;2.35;;
75781;SDS011;64400;44.762;37.698;2023-04-03T07:19:20;12.13;;;4.03;;
75781;SDS011;64400;44.762;37.698;2023-04-03T07:21:55;5.45;;;2.55;;
75781;SDS011;64400;44.762;37.698;2023-04-03T07:24:25;4.75;;;1.92;;
75781;SDS011;64400;44.762;37.698;2023-04-03T07:26:53;4.25;;;1.98;;
75781;SDS011;64400;44.762;37.698;2023-04-03T07:29:27;7.97;;;2.78;;
75781;SDS011;64400;44.762;37.698;2023-04-03T07:31:56;13.77;;;2.83;;
75781;SDS011;64400;44.762;37.698;2023-04-03T07:34:30;4.05;;;1.73;;
75781;SDS011;64400;44.762;37.698;2023-04-03T07:36:58;5.20;;;2.63;;
75781;SDS011;64400;44.762;37.698;2023-04-03T07:39:34;5.95;;;2.53;;
75781;SDS011;64400;44.762;37.698;2023-04-03T07:42:02;6.38;;;3.00;;
75781;SDS011;64400;44.762;37.698;2023-04-03T07:44:37;5.68;;;2.88;;
75781;SDS011;64400;44.762;37.698;2023-04-03T07:47:05;7.82;;;2.75;;
75781;SDS011;64400;44.762;37.698;2023-04-03T07:49:39;7.75;;;2.80;;
75781;SDS011;64400;44.762;37.698;2023-04-03T07:52:08;7.72;;;2.80;;
75781;SDS011;64400;44.762;37.698;2023-04-03T07:54:36;8.00;;;2.40;;
75781;SDS011;64400;44.762;37.698;2023-04-03T07:57:04;9.68;;;3.47;;
75781;SDS011;64400;44.762;37.698;2023-04-03T07:59:33;6.05;;;2.30;;
75781;SDS011;64400;44.762;37.698;2023-04-03T08:02:09;8.35;;;3.17;;
75781;SDS011;64400;44.762;37.698;2023-04-03T08:07:07;4.75;;;2.60;;
75781;SDS011;64400;44.762;37.698;2023-04-03T08:09:41;8.15;;;2.97;;
75781;SDS011;64400;44.762;37.698;2023-04-03T08:12:09;4.97;;;2.63;;
75781;SDS011;64400;44.762;37.698;2023-04-03T08:14:38;8.20;;;2.78;;
75781;SDS011;64400;44.762;37.698;2023-04-03T08:17:06;5.60;;;2.33;;
75781;SDS011;64400;44.762;37.698;2023-04-03T08:19:39;4.93;;;2.63;;
75781;SDS011;64400;44.762;37.698;2023-04-03T08:22:10;8.75;;;3.20;;
75781;SDS011;64400;44.762;37.698;2023-04-03T08:24:38;4.80;;;2.00;;
75781;SDS011;64400;44.762;37.698;2023-04-03T08:27:18;4.72;;;2.17;;
75781;SDS011;64400;44.762;37.698;2023-04-03T08:29:47;19.00;;;3.75;;
75781;SDS011;64400;44.762;37.698;2023-04-03T08:32:14;6.35;;;2.55;;
75781;SDS011;64400;44.762;37.698;2023-04-03T08:34:43;12.00;;;3.45;;
75781;SDS011;64400;44.762;37.698;2023-04-03T08:37:10;7.22;;;2.58;;
75781;SDS011;64400;44.762;37.698;2023-04-03T08:39:38;8.65;;;4.13;;
75781;SDS011;64400;44.762;37.698;2023-04-03T08:42:12;4.85;;;2.63;;
75781;SDS011;64400;44.762;37.698;2023-04-03T08:50:43;8.68;;;2.30;;
75781;SDS011;64400;44.762;37.698;2023-04-03T08:53:15;4.72;;;2.30;;
75781;SDS011;64400;44.762;37.698;2023-04-03T08:55:52;4.53;;;1.90;;
75781;SDS011;64400;44.762;37.698;2023-04-03T08:58:21;3.65;;;1.73;;
75781;SDS011;64400;44.762;37.698;2023-04-03T09:00:57;7.38;;;3.28;;
75781;SDS011;64400;44.762;37.698;2023-04-03T09:03:29;6.68;;;2.90;;
75781;SDS011;64400;44.762;37.698;2023-04-03T09:06:05;3.92;;;1.80;;
75781;SDS011;64400;44.762;37.698;2023-04-03T09:13:57;5.93;;;2.08;;
75781;SDS011;64400;44.762;37.698;2023-04-03T09:17:03;5.65;;;2.75;;
75781;SDS011;64400;44.762;37.698;2023-04-03T09:22:51;4.35;;;1.90;;
75781;SDS011;64400;44.762;37.698;2023-04-03T09:27:50;8.77;;;3.90;;
75781;SDS011;64400;44.762;37.698;2023-04-03T09:30:20;7.53;;;3.65;;
75781;SDS011;64400;44.762;37.698;2023-04-03T09:32:51;4.05;;;2.40;;
75781;SDS011;64400;44.762;37.698;2023-04-03T09:35:28;6.03;;;3.15;;
75781;SDS011;64400;44.762;37.698;2023-04-03T09:40:45;6.13;;;3.15;;
75781;SDS011;64400;44.762;37.698;2023-04-03T09:43:33;5.43;;;2.60;;
75781;SDS011;64400;44.762;37.698;2023-04-03T09:46:45;7.25;;;2.63;;
75781;SDS011;64400;44.762;37.698;2023-04-03T09:49:02;7.22;;;2.90;;
75781;SDS011;64400;44.762;37.698;2023-04-03T09:51:36;8.13;;;2.95;;
75781;SDS011;64400;44.762;37.698;2023-04-03T09:54:26;5.05;;;3.00;;
75781;SDS011;64400;44.762;37.698;2023-04-03T09:57:01;6.45;;;3.75;;
75781;SDS011;64400;44.762;37.698;2023-04-03T09:59:35;11.40;;;4.97;;
75781;SDS011;64400;44.762;37.698;2023-04-03T10:04:38;8.45;;;3.83;;
75781;SDS011;64400;44.762;37.698;2023-04-03T10:07:53;7.68;;;2.60;;
75781;SDS011;64400;44.762;37.698;2023-04-03T10:09:58;9.82;;;4.03;;
75781;SDS011;64400;44.762;37.698;2023-04-03T10:12:47;4.43;;;2.15;;
75781;SDS011;64400;44.762;37.698;2023-04-03T10:15:16;15.10;;;5.63;;
75781;SDS011;64400;44.762;37.698;2023-04-03T10:18:00;7.88;;;3.08;;
75781;SDS011;64400;44.762;37.698;2023-04-03T10:20:49;10.35;;;3.97;;
75781;SDS011;64400;44.762;37.698;2023-04-03T10:26:39;5.97;;;2.50;;
75781;SDS011;64400;44.762;37.698;2023-04-03T10:34:38;6.97;;;4.18;;
75781;SDS011;64400;44.762;37.698;2023-04-03T10:37:29;13.35;;;5.85;;
75781;SDS011;64400;44.762;37.698;2023-04-03T10:42:57;7.70;;;3.33;;
75781;SDS011;64400;44.762;37.698;2023-04-03T10:48:11;11.15;;;5.45;;
75781;SDS011;64400;44.762;37.698;2023-04-03T10:51:01;8.05;;;4.53;;
75781;SDS011;64400;44.762;37.698;2023-04-03T10:57:08;7.68;;;2.80;;
75781;SDS011;64400;44.762;37.698;2023-04-03T10:59:53;5.88;;;3.25;;
75781;SDS011;64400;44.762;37.698;2023-04-03T11:02:30;6.28;;;3.70;;
75781;SDS011;64400;44.762;37.698;2023-04-03T11:05:04;8.85;;;3.92;;
75781;SDS011;64400;44.762;37.698;2023-04-03T11:08:05;5.20;;;2.55;;
75781;SDS011;64400;44.762;37.698;2023-04-03T11:10:48;5.95;;;2.08;;
75781;SDS011;64400;44.762;37.698;2023-04-03T11:13:22;8.15;;;3.67;;
75781;SDS011;64400;44.762;37.698;2023-04-03T11:15:55;8.43;;;3.15;;
75781;SDS011;64400;44.762;37.698;2023-04-03T11:21:01;5.18;;;3.22;;
75781;SDS011;64400;44.762;37.698;2023-04-03T11:23:35;6.03;;;2.25;;
75781;SDS011;64400;44.762;37.698;2023-04-03T11:26:19;6.13;;;3.88;;
75781;SDS011;64400;44.762;37.698;2023-04-03T11:28:56;7.15;;;3.28;;
75781;SDS011;64400;44.762;37.698;2023-04-03T11:32:02;7.80;;;3.20;;
75781;SDS011;64400;44.762;37.698;2023-04-03T11:34:40;5.28;;;3.10;;
75781;SDS011;64400;44.762;37.698;2023-04-03T11:37:13;9.48;;;3.80;;
75781;SDS011;64400;44.762;37.698;2023-04-03T11:42:48;5.95;;;2.75;;
75781;SDS011;64400;44.762;37.698;2023-04-03T11:50:51;7.97;;;4.10;;
75781;SDS011;64400;44.762;37.698;2023-04-03T11:53:35;6.18;;;2.78;;
75781;SDS011;64400;44.762;37.698;2023-04-03T11:58:33;4.68;;;2.88;;
75781;SDS011;64400;44.762;37.698;2023-04-03T12:01:06;5.90;;;3.40;;
75781;SDS011;64400;44.762;37.698;2023-04-03T12:11:29;9.35;;;4.57;;
75781;SDS011;64400;44.762;37.698;2023-04-03T12:22:06;9.52;;;4.60;;
75781;SDS011;64400;44.762;37.698;2023-04-03T12:24:38;14.02;;;5.35;;
75781;SDS011;64400;44.762;37.698;2023-04-03T12:27:27;5.05;;;3.70;;
75781;SDS011;64400;44.762;37.698;2023-04-03T12:35:27;9.85;;;5.90;;
75781;SDS011;64400;44.762;37.698;2023-04-03T12:38:01;9.82;;;4.95;;
75781;SDS011;64400;44.762;37.698;2023-04-03T12:46:45;11.77;;;5.63;;
75781;SDS011;64400;44.762;37.698;2023-04-03T12:51:58;11.00;;;5.57;;
75781;SDS011;64400;44.762;37.698;2023-04-03T12:54:30;7.85;;;3.17;;
75781;SDS011;64400;44.762;37.698;2023-04-03T12:59:43;15.68;;;5.40;;
75781;SDS011;64400;44.762;37.698;2023-04-03T13:02:21;9.32;;;4.95;;
75781;SDS011;64400;44.762;37.698;2023-04-03T13:04:52;16.63;;;5.90;;
75781;SDS011;64400;44.762;37.698;2023-04-03T13:07:42;7.85;;;4.25;;
75781;SDS011;64400;44.762;37.698;2023-04-03T13:10:15;9.55;;;5.30;;
75781;SDS011;64400;44.762;37.698;2023-04-03T13:17:52;15.10;;;5.20;;
75781;SDS011;64400;44.762;37.698;2023-04-03T13:20:24;9.15;;;4.85;;
75781;SDS011;64400;44.762;37.698;2023-04-03T13:22:54;9.88;;;4.93;;
75781;SDS011;64400;44.762;37.698;2023-04-03T13:25:37;40.20;;;13.05;;
75781;SDS011;64400;44.762;37.698;2023-04-03T13:28:10;7.55;;;4.10;;
75781;SDS011;64400;44.762;37.698;2023-04-03T13:30:40;11.45;;;6.10;;
75781;SDS011;64400;44.762;37.698;2023-04-03T13:33:22;16.23;;;6.45;;
75781;SDS011;64400;44.762;37.698;2023-04-03T13:35:56;9.50;;;3.33;;
75781;SDS011;64400;44.762;37.698;2023-04-03T13:38:30;16.95;;;5.55;;
75781;SDS011;64400;44.762;37.698;2023-04-03T13:41:02;10.85;;;5.28;;
75781;SDS011;64400;44.762;37.698;2023-04-03T13:43:34;10.73;;;4.68;;
75781;SDS011;64400;44.762;37.698;2023-04-03T13:46:06;6.68;;;2.97;;
75781;SDS011;64400;44.762;37.698;2023-04-03T13:48:52;6.22;;;2.75;;
75781;SDS011;64400;44.762;37.698;2023-04-03T13:51:28;8.75;;;5.35;;
75781;SDS011;64400;44.762;37.698;2023-04-03T13:54:01;12.27;;;6.18;;
75781;SDS011;64400;44.762;37.698;2023-04-03T13:56:40;10.80;;;4.43;;
75781;SDS011;64400;44.762;37.698;2023-04-03T14:01:41;13.75;;;6.43;;
75781;SDS011;64400;44.762;37.698;2023-04-03T14:04:45;11.63;;;5.03;;
75781;SDS011;64400;44.762;37.698;2023-04-03T14:07:04;16.58;;;5.13;;
75781;SDS011;64400;44.762;37.698;2023-04-03T14:09:32;10.43;;;4.68;;
75781;SDS011;64400;44.762;37.698;2023-04-03T14:12:02;6.78;;;3.28;;
75781;SDS011;64400;44.762;37.698;2023-04-03T14:14:50;13.20;;;4.85;;
75781;SDS011;64400;44.762;37.698;2023-04-03T14:17:20;8.93;;;3.67;;
75781;SDS011;64400;44.762;37.698;2023-04-03T14:19:52;8.80;;;3.67;;
75781;SDS011;64400;44.762;37.698;2023-04-03T14:22:23;5.75;;;3.33;;
75781;SDS011;64400;44.762;37.698;2023-04-03T14:24:54;6.10;;;2.50;;
75781;SDS011;64400;44.762;37.698;2023-04-03T14:27:27;5.00;;;2.75;;
75781;SDS011;64400;44.762;37.698;2023-04-03T14:29:58;10.93;;;4.63;;
75781;SDS011;64400;44.762;37.698;2023-04-03T14:32:26;9.93;;;4.07;;
75781;SDS011;64400;44.762;37.698;2023-04-03T14:34:55;10.75;;;4.00;;
75781;SDS011;64400;44.762;37.698;2023-04-03T14:37:26;8.02;;;4.22;;
75781;SDS011;64400;44.762;37.698;2023-04-03T14:39:58;9.35;;;5.13;;
75781;SDS011;64400;44.762;37.698;2023-04-03T14:42:29;10.30;;;3.78;;
75781;SDS011;64400;44.762;37.698;2023-04-03T14:45:00;10.85;;;4.70;;
75781;SDS011;64400;44.762;37.698;2023-04-03T14:47:31;4.38;;;2.65;;
75781;SDS011;64400;44.762;37.698;2023-04-03T14:50:00;6.70;;;3.05;;
75781;SDS011;64400;44.762;37.698;2023-04-03T14:52:32;7.70;;;4.53;;
75781;SDS011;64400;44.762;37.698;2023-04-03T14:55:03;7.70;;;3.88;;
75781;SDS011;64400;44.762;37.698;2023-04-03T14:57:33;11.75;;;6.30;;
75781;SDS011;64400;44.762;37.698;2023-04-03T15:00:02;12.55;;;6.28;;
75781;SDS011;64400;44.762;37.698;2023-04-03T15:02:35;11.75;;;6.60;;
75781;SDS011;64400;44.762;37.698;2023-04-03T15:05:06;11.10;;;5.78;;
75781;SDS011;64400;44.762;37.698;2023-04-03T15:07:40;10.10;;;5.05;;
75781;SDS011;64400;44.762;37.698;2023-04-03T15:10:18;14.75;;;4.68;;
75781;SDS011;64400;44.762;37.698;2023-04-03T15:12:53;5.60;;;3.15;;
75781;SDS011;64400;44.762;37.698;2023-04-03T15:15:22;9.98;;;4.15;;
75781;SDS011;64400;44.762;37.698;2023-04-03T15:17:51;7.38;;;4.18;;
75781;SDS011;64400;44.762;37.698;2023-04-03T15:20:23;6.50;;;3.53;;
75781;SDS011;64400;44.762;37.698;2023-04-03T15:22:53;9.35;;;4.30;;
75781;SDS011;64400;44.762;37.698;2023-04-03T15:25:23;7.28;;;3.25;;
75781;SDS011;64400;44.762;37.698;2023-04-03T15:27:53;7.53;;;3.83;;
75781;SDS011;64400;44.762;37.698;2023-04-03T15:30:21;11.23;;;4.60;;
75781;SDS011;64400;44.762;37.698;2023-04-03T15:32:50;5.25;;;2.40;;
75781;SDS011;64400;44.762;37.698;2023-04-03T15:35:18;10.23;;;4.22;;
75781;SDS011;64400;44.762;37.698;2023-04-03T15:37:46;6.15;;;2.47;;
75781;SDS011;64400;44.762;37.698;2023-04-03T15:40:15;8.40;;;4.22;;
75781;SDS011;64400;44.762;37.698;2023-04-03T15:42:43;13.30;;;5.32;;
75781;SDS011;64400;44.762;37.698;2023-04-03T15:45:11;11.43;;;5.15;;
75781;SDS011;64400;44.762;37.698;2023-04-03T15:47:38;8.95;;;4.95;;
75781;SDS011;64400;44.762;37.698;2023-04-03T15:50:07;8.90;;;3.45;;
75781;SDS011;64400;44.762;37.698;2023-04-03T15:52:35;8.85;;;5.32;;
75781;SDS011;64400;44.762;37.698;2023-04-03T15:55:04;9.00;;;4.60;;
75781;SDS011;64400;44.762;37.698;2023-04-03T15:57:33;10.40;;;5.10;;
75781;SDS011;64400;44.762;37.698;2023-04-03T16:00:00;9.65;;;5.13;;
75781;SDS011;64400;44.762;37.698;2023-04-03T16:02:32;8.40;;;4.40;;
75781;SDS011;64400;44.762;37.698;2023-04-03T16:05:01;9.45;;;3.83;;
75781;SDS011;64400;44.762;37.698;2023-04-03T16:07:30;5.88;;;3.42;;
75781;SDS011;64400;44.762;37.698;2023-04-03T16:09:57;10.40;;;4.60;;
75781;SDS011;64400;44.762;37.698;2023-04-03T16:12:25;9.27;;;4.50;;
75781;SDS011;64400;44.762;37.698;2023-04-03T16:14:54;11.27;;;5.30;;
75781;SDS011;64400;44.762;37.698;2023-04-03T16:17:22;9.02;;;5.13;;
75781;SDS011;64400;44.762;37.698;2023-04-03T16:19:50;8.48;;;5.00;;
75781;SDS011;64400;44.762;37.698;2023-04-03T16:22:17;8.25;;;4.93;;
75781;SDS011;64400;44.762;37.698;2023-04-03T16:24:45;7.03;;;4.40;;
75781;SDS011;64400;44.762;37.698;2023-04-03T16:27:13;6.47;;;3.08;;
75781;SDS011;64400;44.762;37.698;2023-04-03T16:29:41;8.10;;;3.08;;
75781;SDS011;64400;44.762;37.698;2023-04-03T16:32:09;8.57;;;3.78;;
75781;SDS011;64400;44.762;37.698;2023-04-03T16:34:37;5.13;;;3.10;;
75781;SDS011;64400;44.762;37.698;2023-04-03T16:37:08;7.47;;;3.42;;
75781;SDS011;64400;44.762;37.698;2023-04-03T16:39:36;10.90;;;4.32;;
75781;SDS011;64400;44.762;37.698;2023-04-03T16:42:04;11.88;;;4.93;;
75781;SDS011;64400;44.762;37.698;2023-04-03T16:44:32;8.02;;;4.88;;
75781;SDS011;64400;44.762;37.698;2023-04-03T16:47:00;6.65;;;4.63;;
75781;SDS011;64400;44.762;37.698;2023-04-03T16:49:28;6.82;;;3.65;;
75781;SDS011;64400;44.762;37.698;2023-04-03T16:52:00;7.32;;;4.55;;
75781;SDS011;64400;44.762;37.698;2023-04-03T16:54:30;11.77;;;6.20;;
75781;SDS011;64400;44.762;37.698;2023-04-03T16:56:58;11.73;;;5.38;;
75781;SDS011;64400;44.762;37.698;2023-04-03T16:59:26;9.00;;;4.82;;
75781;SDS011;64400;44.762;37.698;2023-04-03T17:01:55;6.20;;;3.80;;
75781;SDS011;64400;44.762;37.698;2023-04-03T17:04:23;6.78;;;4.10;;
75781;SDS011;64400;44.762;37.698;2023-04-03T17:06:51;6.35;;;3.53;;
75781;SDS011;64400;44.762;37.698;2023-04-03T17:09:19;7.25;;;4.13;;
75781;SDS011;64400;44.762;37.698;2023-04-03T17:11:48;7.35;;;3.88;;
75781;SDS011;64400;44.762;37.698;2023-04-03T17:14:16;6.13;;;3.78;;
75781;SDS011;64400;44.762;37.698;2023-04-03T17:16:50;9.13;;;4.57;;
75781;SDS011;64400;44.762;37.698;2023-04-03T17:19:18;6.90;;;4.40;;
75781;SDS011;64400;44.762;37.698;2023-04-03T17:21:54;7.20;;;3.90;;
75781;SDS011;64400;44.762;37.698;2023-04-03T17:39:08;7.50;;;4.55;;
75781;SDS011;64400;44.762;37.698;2023-04-03T20:23:28;15.85;;;9.57;;
75781;SDS011;64400;44.762;37.698;2023-04-03T20:25:58;16.58;;;9.25;;
75781;SDS011;64400;44.762;37.698;2023-04-03T20:28:38;16.73;;;9.43;;
75781;SDS011;64400;44.762;37.698;2023-04-03T20:31:06;15.68;;;9.68;;
75781;SDS011;64400;44.762;37.698;2023-04-03T20:33:36;19.75;;;10.50;;